sensor_id;sensor_type;location;lat;lon;timestamp;temperature;humidity
42227;DHT22;27892;52.378;13.122;2024-03-29T00:02:03;13.30;53.40
42227;DHT22;27892;52.378;13.122;2024-03-29T00:04:29;13.20;53.70
42227;DHT22;27892;52.378;13.122;2024-03-29T00:06:55;13.10;54.50
42227;DHT22;27892;52.378;13.122;2024-03-29T00:09:21;13.10;54.20
42227;DHT22;27892;52.378;13.122;2024-03-29T00:11:46;13.00;54.70
42227;DHT22;27892;52.378;13.122;2024-03-29T00:14:12;12.90;55.20
42227;DHT22;27892;52.378;13.122;2024-03-29T00:16:37;12.80;55.60
42227;DHT22;27892;52.378;13.122;2024-03-29T00:19:03;12.70;55.90
42227;DHT22;27892;52.378;13.122;2024-03-29T00:21:29;12.70;56.20
42227;DHT22;27892;52.378;13.122;2024-03-29T00:23:54;12.60;56.40
42227;DHT22;27892;52.378;13.122;2024-03-29T00:26:20;12.40;56.80
42227;DHT22;27892;52.378;13.122;2024-03-29T00:28:46;12.30;57.40
42227;DHT22;27892;52.378;13.122;2024-03-29T00:31:11;12.10;57.80
42227;DHT22;27892;52.378;13.122;2024-03-29T00:33:38;12.10;58.20
42227;DHT22;27892;52.378;13.122;2024-03-29T00:36:04;12.00;58.50
42227;DHT22;27892;52.378;13.122;2024-03-29T00:38:29;12.00;58.70
42227;DHT22;27892;52.378;13.122;2024-03-29T00:40:55;12.00;58.80
42227;DHT22;27892;52.378;13.122;2024-03-29T00:43:21;12.00;59.00
42227;DHT22;27892;52.378;13.122;2024-03-29T00:45:46;11.90;59.40
42227;DHT22;27892;52.378;13.122;2024-03-29T00:48:12;11.90;59.60
42227;DHT22;27892;52.378;13.122;2024-03-29T00:50:40;11.90;59.50
42227;DHT22;27892;52.378;13.122;2024-03-29T00:53:06;12.00;59.50
42227;DHT22;27892;52.378;13.122;2024-03-29T00:55:32;12.00;59.40
42227;DHT22;27892;52.378;13.122;2024-03-29T00:57:57;11.90;59.30
42227;DHT22;27892;52.378;13.122;2024-03-29T01:00:23;11.90;59.30
42227;DHT22;27892;52.378;13.122;2024-03-29T01:02:49;11.90;59.40
42227;DHT22;27892;52.378;13.122;2024-03-29T01:05:15;11.80;59.30
42227;DHT22;27892;52.378;13.122;2024-03-29T01:07:41;11.70;59.40
42227;DHT22;27892;52.378;13.122;2024-03-29T01:10:07;11.70;59.90
42227;DHT22;27892;52.378;13.122;2024-03-29T01:12:36;11.60;60.00
42227;DHT22;27892;52.378;13.122;2024-03-29T01:15:02;11.50;60.10
42227;DHT22;27892;52.378;13.122;2024-03-29T01:17:29;11.40;60.10
42227;DHT22;27892;52.378;13.122;2024-03-29T01:19:54;11.40;60.30
42227;DHT22;27892;52.378;13.122;2024-03-29T01:22:20;11.30;60.50
42227;DHT22;27892;52.378;13.122;2024-03-29T01:24:46;11.20;60.70
42227;DHT22;27892;52.378;13.122;2024-03-29T01:27:12;11.20;60.90
42227;DHT22;27892;52.378;13.122;2024-03-29T01:29:37;11.10;61.00
42227;DHT22;27892;52.378;13.122;2024-03-29T01:32:03;11.00;61.30
42227;DHT22;27892;52.378;13.122;2024-03-29T01:34:30;11.00;61.30
42227;DHT22;27892;52.378;13.122;2024-03-29T01:36:55;10.90;61.60
42227;DHT22;27892;52.378;13.122;2024-03-29T01:39:21;10.90;61.40
42227;DHT22;27892;52.378;13.122;2024-03-29T01:41:52;10.90;61.70
42227;DHT22;27892;52.378;13.122;2024-03-29T01:44:18;10.80;61.80
42227;DHT22;27892;52.378;13.122;2024-03-29T01:46:44;10.80;62.10
42227;DHT22;27892;52.378;13.122;2024-03-29T01:49:10;10.70;62.20
42227;DHT22;27892;52.378;13.122;2024-03-29T01:51:38;10.70;62.10
42227;DHT22;27892;52.378;13.122;2024-03-29T01:54:08;10.70;62.00
42227;DHT22;27892;52.378;13.122;2024-03-29T01:56:35;10.70;62.30
42227;DHT22;27892;52.378;13.122;2024-03-29T01:59:03;10.60;62.30
42227;DHT22;27892;52.378;13.122;2024-03-29T02:01:30;10.60;62.40
42227;DHT22;27892;52.378;13.122;2024-03-29T02:03:56;10.50;62.30
42227;DHT22;27892;52.378;13.122;2024-03-29T02:06:22;10.50;62.20
42227;DHT22;27892;52.378;13.122;2024-03-29T02:08:54;10.50;62.20
42227;DHT22;27892;52.378;13.122;2024-03-29T02:11:21;10.40;62.50
42227;DHT22;27892;52.378;13.122;2024-03-29T02:13:48;10.40;62.40
42227;DHT22;27892;52.378;13.122;2024-03-29T02:16:14;10.40;62.30
42227;DHT22;27892;52.378;13.122;2024-03-29T02:18:40;10.30;62.20
42227;DHT22;27892;52.378;13.122;2024-03-29T02:21:06;10.40;62.60
42227;DHT22;27892;52.378;13.122;2024-03-29T02:23:32;10.40;62.30
42227;DHT22;27892;52.378;13.122;2024-03-29T02:26:01;10.30;61.80
42227;DHT22;27892;52.378;13.122;2024-03-29T02:28:27;10.30;62.00
42227;DHT22;27892;52.378;13.122;2024-03-29T02:30:52;10.30;61.80
42227;DHT22;27892;52.378;13.122;2024-03-29T02:33:21;10.30;61.80
42227;DHT22;27892;52.378;13.122;2024-03-29T02:35:46;10.20;61.70
42227;DHT22;27892;52.378;13.122;2024-03-29T02:38:12;10.10;61.60
42227;DHT22;27892;52.378;13.122;2024-03-29T02:40:37;10.10;61.90
42227;DHT22;27892;52.378;13.122;2024-03-29T02:43:03;10.10;61.90
42227;DHT22;27892;52.378;13.122;2024-03-29T02:45:29;10.10;62.00
42227;DHT22;27892;52.378;13.122;2024-03-29T02:47:54;10.10;61.70
42227;DHT22;27892;52.378;13.122;2024-03-29T02:50:20;10.00;61.80
42227;DHT22;27892;52.378;13.122;2024-03-29T02:52:46;10.00;61.90
42227;DHT22;27892;52.378;13.122;2024-03-29T02:55:11;9.90;63.00
42227;DHT22;27892;52.378;13.122;2024-03-29T02:57:37;9.90;63.20
42227;DHT22;27892;52.378;13.122;2024-03-29T03:00:07;9.90;63.10
42227;DHT22;27892;52.378;13.122;2024-03-29T03:02:40;9.90;63.10
42227;DHT22;27892;52.378;13.122;2024-03-29T03:05:07;9.90;63.20
42227;DHT22;27892;52.378;13.122;2024-03-29T03:07:33;9.90;63.00
42227;DHT22;27892;52.378;13.122;2024-03-29T03:10:18;9.80;63.00
42227;DHT22;27892;52.378;13.122;2024-03-29T03:13:02;9.70;63.10
42227;DHT22;27892;52.378;13.122;2024-03-29T03:15:28;9.60;63.20
42227;DHT22;27892;52.378;13.122;2024-03-29T03:17:53;9.60;63.40
42227;DHT22;27892;52.378;13.122;2024-03-29T03:20:19;9.50;63.60
42227;DHT22;27892;52.378;13.122;2024-03-29T03:22:45;9.50;63.70
42227;DHT22;27892;52.378;13.122;2024-03-29T03:25:11;9.40;63.70
42227;DHT22;27892;52.378;13.122;2024-03-29T03:27:36;9.40;64.00
42227;DHT22;27892;52.378;13.122;2024-03-29T03:30:02;9.40;64.10
42227;DHT22;27892;52.378;13.122;2024-03-29T03:32:28;9.30;64.10
42227;DHT22;27892;52.378;13.122;2024-03-29T03:34:54;9.20;64.30
42227;DHT22;27892;52.378;13.122;2024-03-29T03:37:19;9.20;64.40
42227;DHT22;27892;52.378;13.122;2024-03-29T03:39:45;9.20;64.50
42227;DHT22;27892;52.378;13.122;2024-03-29T03:42:11;9.10;64.60
42227;DHT22;27892;52.378;13.122;2024-03-29T03:44:36;9.10;64.70
42227;DHT22;27892;52.378;13.122;2024-03-29T03:47:02;9.10;64.70
42227;DHT22;27892;52.378;13.122;2024-03-29T03:49:28;9.10;64.80
42227;DHT22;27892;52.378;13.122;2024-03-29T03:51:53;9.10;64.90
42227;DHT22;27892;52.378;13.122;2024-03-29T03:54:19;9.10;64.70
42227;DHT22;27892;52.378;13.122;2024-03-29T03:56:44;9.00;64.50
42227;DHT22;27892;52.378;13.122;2024-03-29T03:59:10;9.00;64.80
42227;DHT22;27892;52.378;13.122;2024-03-29T04:01:36;8.90;64.80
42227;DHT22;27892;52.378;13.122;2024-03-29T04:04:02;8.90;64.80
42227;DHT22;27892;52.378;13.122;2024-03-29T04:06:27;8.90;64.80
42227;DHT22;27892;52.378;13.122;2024-03-29T04:08:53;8.90;64.80
42227;DHT22;27892;52.378;13.122;2024-03-29T04:11:19;8.90;64.70
42227;DHT22;27892;52.378;13.122;2024-03-29T04:13:45;8.90;64.60
42227;DHT22;27892;52.378;13.122;2024-03-29T04:16:11;9.00;64.80
42227;DHT22;27892;52.378;13.122;2024-03-29T04:18:37;8.90;64.50
42227;DHT22;27892;52.378;13.122;2024-03-29T04:21:03;9.00;64.60
42227;DHT22;27892;52.378;13.122;2024-03-29T04:23:29;9.00;64.40
42227;DHT22;27892;52.378;13.122;2024-03-29T04:25:57;9.00;64.40
42227;DHT22;27892;52.378;13.122;2024-03-29T04:28:23;9.00;64.50
42227;DHT22;27892;52.378;13.122;2024-03-29T04:30:56;9.00;64.30
42227;DHT22;27892;52.378;13.122;2024-03-29T04:33:23;9.10;64.20
42227;DHT22;27892;52.378;13.122;2024-03-29T04:35:59;9.10;63.90
42227;DHT22;27892;52.378;13.122;2024-03-29T04:38:28;9.10;64.10
42227;DHT22;27892;52.378;13.122;2024-03-29T04:40:55;9.10;64.10
42227;DHT22;27892;52.378;13.122;2024-03-29T04:43:23;9.20;63.90
42227;DHT22;27892;52.378;13.122;2024-03-29T04:45:49;9.10;63.70
42227;DHT22;27892;52.378;13.122;2024-03-29T04:48:15;9.20;63.70
42227;DHT22;27892;52.378;13.122;2024-03-29T04:50:41;9.20;63.30
42227;DHT22;27892;52.378;13.122;2024-03-29T04:53:09;9.10;63.00
42227;DHT22;27892;52.378;13.122;2024-03-29T04:55:35;9.20;63.30
42227;DHT22;27892;52.378;13.122;2024-03-29T04:58:01;9.20;63.30
42227;DHT22;27892;52.378;13.122;2024-03-29T05:00:27;9.20;63.30
42227;DHT22;27892;52.378;13.122;2024-03-29T05:02:53;9.30;62.80
42227;DHT22;27892;52.378;13.122;2024-03-29T05:05:19;9.30;63.00
42227;DHT22;27892;52.378;13.122;2024-03-29T05:07:44;9.40;62.70
42227;DHT22;27892;52.378;13.122;2024-03-29T05:10:10;9.40;62.30
42227;DHT22;27892;52.378;13.122;2024-03-29T05:12:36;9.30;62.20
42227;DHT22;27892;52.378;13.122;2024-03-29T05:15:02;9.40;62.20
42227;DHT22;27892;52.378;13.122;2024-03-29T05:17:28;9.40;62.40
42227;DHT22;27892;52.378;13.122;2024-03-29T05:19:54;9.40;62.30
42227;DHT22;27892;52.378;13.122;2024-03-29T05:22:22;9.50;62.30
42227;DHT22;27892;52.378;13.122;2024-03-29T05:24:49;9.60;61.90
42227;DHT22;27892;52.378;13.122;2024-03-29T05:27:15;9.60;61.80
42227;DHT22;27892;52.378;13.122;2024-03-29T05:29:41;9.60;61.20
42227;DHT22;27892;52.378;13.122;2024-03-29T05:32:09;9.70;61.50
42227;DHT22;27892;52.378;13.122;2024-03-29T05:34:35;9.70;61.30
42227;DHT22;27892;52.378;13.122;2024-03-29T05:37:00;9.80;61.20
42227;DHT22;27892;52.378;13.122;2024-03-29T05:39:26;9.80;61.00
42227;DHT22;27892;52.378;13.122;2024-03-29T05:41:52;9.90;61.00
42227;DHT22;27892;52.378;13.122;2024-03-29T05:44:17;9.90;60.60
42227;DHT22;27892;52.378;13.122;2024-03-29T05:46:43;10.00;59.70
42227;DHT22;27892;52.378;13.122;2024-03-29T05:49:09;10.00;59.40
42227;DHT22;27892;52.378;13.122;2024-03-29T05:51:35;10.20;59.50
42227;DHT22;27892;52.378;13.122;2024-03-29T05:54:01;10.30;59.10
42227;DHT22;27892;52.378;13.122;2024-03-29T05:56:29;10.50;58.90
42227;DHT22;27892;52.378;13.122;2024-03-29T05:58:55;10.60;58.70
42227;DHT22;27892;52.378;13.122;2024-03-29T06:01:20;10.60;58.20
42227;DHT22;27892;52.378;13.122;2024-03-29T06:03:47;10.70;58.20
42227;DHT22;27892;52.378;13.122;2024-03-29T06:06:12;10.80;58.20
42227;DHT22;27892;52.378;13.122;2024-03-29T06:08:45;10.80;57.50
42227;DHT22;27892;52.378;13.122;2024-03-29T06:11:11;10.80;57.40
42227;DHT22;27892;52.378;13.122;2024-03-29T06:13:37;10.90;57.60
42227;DHT22;27892;52.378;13.122;2024-03-29T06:16:23;11.00;57.40
42227;DHT22;27892;52.378;13.122;2024-03-29T06:19:07;11.10;57.10
42227;DHT22;27892;52.378;13.122;2024-03-29T06:21:33;11.20;57.40
42227;DHT22;27892;52.378;13.122;2024-03-29T06:24:09;11.30;56.80
42227;DHT22;27892;52.378;13.122;2024-03-29T06:26:38;11.40;56.70
42227;DHT22;27892;52.378;13.122;2024-03-29T06:29:04;11.60;56.60
42227;DHT22;27892;52.378;13.122;2024-03-29T06:31:30;11.70;56.20
42227;DHT22;27892;52.378;13.122;2024-03-29T06:33:57;11.80;55.80
42227;DHT22;27892;52.378;13.122;2024-03-29T06:36:23;11.90;55.50
42227;DHT22;27892;52.378;13.122;2024-03-29T06:38:49;12.00;55.20
42227;DHT22;27892;52.378;13.122;2024-03-29T06:41:15;12.20;54.80
42227;DHT22;27892;52.378;13.122;2024-03-29T06:43:43;12.20;54.40
42227;DHT22;27892;52.378;13.122;2024-03-29T06:46:11;12.30;54.30
42227;DHT22;27892;52.378;13.122;2024-03-29T06:48:36;12.30;53.70
42227;DHT22;27892;52.378;13.122;2024-03-29T06:51:03;12.40;53.90
42227;DHT22;27892;52.378;13.122;2024-03-29T06:53:29;12.50;53.20
42227;DHT22;27892;52.378;13.122;2024-03-29T06:55:55;12.60;53.50
42227;DHT22;27892;52.378;13.122;2024-03-29T06:58:24;12.60;53.30
42227;DHT22;27892;52.378;13.122;2024-03-29T07:00:50;12.70;52.80
42227;DHT22;27892;52.378;13.122;2024-03-29T07:03:17;12.70;52.80
42227;DHT22;27892;52.378;13.122;2024-03-29T07:05:47;12.70;52.70
42227;DHT22;27892;52.378;13.122;2024-03-29T07:08:13;12.70;52.50
42227;DHT22;27892;52.378;13.122;2024-03-29T07:10:39;12.80;52.30
42227;DHT22;27892;52.378;13.122;2024-03-29T07:13:06;12.80;52.10
42227;DHT22;27892;52.378;13.122;2024-03-29T07:15:32;12.80;52.20
42227;DHT22;27892;52.378;13.122;2024-03-29T07:17:58;12.90;52.20
42227;DHT22;27892;52.378;13.122;2024-03-29T07:20:25;12.90;51.80
42227;DHT22;27892;52.378;13.122;2024-03-29T07:22:51;13.00;51.80
42227;DHT22;27892;52.378;13.122;2024-03-29T07:25:16;13.00;51.40
42227;DHT22;27892;52.378;13.122;2024-03-29T07:27:42;13.10;51.70
42227;DHT22;27892;52.378;13.122;2024-03-29T07:30:09;13.20;51.20
42227;DHT22;27892;52.378;13.122;2024-03-29T07:32:36;13.30;50.70
42227;DHT22;27892;52.378;13.122;2024-03-29T07:35:02;13.20;50.80
42227;DHT22;27892;52.378;13.122;2024-03-29T07:37:28;13.30;50.30
42227;DHT22;27892;52.378;13.122;2024-03-29T07:39:54;13.30;50.70
42227;DHT22;27892;52.378;13.122;2024-03-29T07:42:19;13.40;50.60
42227;DHT22;27892;52.378;13.122;2024-03-29T07:44:45;13.50;50.50
42227;DHT22;27892;52.378;13.122;2024-03-29T07:47:11;13.50;50.60
42227;DHT22;27892;52.378;13.122;2024-03-29T07:49:38;13.50;50.50
42227;DHT22;27892;52.378;13.122;2024-03-29T07:52:04;13.60;50.40
42227;DHT22;27892;52.378;13.122;2024-03-29T07:54:32;13.50;51.10
42227;DHT22;27892;52.378;13.122;2024-03-29T07:56:57;13.60;51.20
42227;DHT22;27892;52.378;13.122;2024-03-29T07:59:23;13.60;51.10
42227;DHT22;27892;52.378;13.122;2024-03-29T08:01:48;13.60;51.00
42227;DHT22;27892;52.378;13.122;2024-03-29T08:04:17;13.70;51.20
42227;DHT22;27892;52.378;13.122;2024-03-29T08:06:43;13.70;51.10
42227;DHT22;27892;52.378;13.122;2024-03-29T08:09:08;13.70;50.90
42227;DHT22;27892;52.378;13.122;2024-03-29T08:11:35;13.70;51.10
42227;DHT22;27892;52.378;13.122;2024-03-29T08:14:01;13.70;51.10
42227;DHT22;27892;52.378;13.122;2024-03-29T08:16:27;13.70;51.40
42227;DHT22;27892;52.378;13.122;2024-03-29T08:18:53;13.80;52.00
42227;DHT22;27892;52.378;13.122;2024-03-29T08:21:18;14.00;51.30
42227;DHT22;27892;52.378;13.122;2024-03-29T08:23:44;14.10;51.20
42227;DHT22;27892;52.378;13.122;2024-03-29T08:26:12;14.20;51.20
42227;DHT22;27892;52.378;13.122;2024-03-29T08:28:38;14.40;50.90
42227;DHT22;27892;52.378;13.122;2024-03-29T08:31:05;14.60;50.90
42227;DHT22;27892;52.378;13.122;2024-03-29T08:33:32;14.80;50.30
42227;DHT22;27892;52.378;13.122;2024-03-29T08:35:58;15.00;49.70
42227;DHT22;27892;52.378;13.122;2024-03-29T08:38:24;15.00;49.50
42227;DHT22;27892;52.378;13.122;2024-03-29T08:40:50;15.10;49.80
42227;DHT22;27892;52.378;13.122;2024-03-29T08:43:16;15.30;49.50
42227;DHT22;27892;52.378;13.122;2024-03-29T08:45:44;15.50;49.10
42227;DHT22;27892;52.378;13.122;2024-03-29T08:48:10;15.70;49.20
42227;DHT22;27892;52.378;13.122;2024-03-29T08:50:36;15.80;48.70
42227;DHT22;27892;52.378;13.122;2024-03-29T08:53:02;15.70;48.60
42227;DHT22;27892;52.378;13.122;2024-03-29T08:55:29;15.70;48.40
42227;DHT22;27892;52.378;13.122;2024-03-29T08:57:57;15.70;48.90
42227;DHT22;27892;52.378;13.122;2024-03-29T09:00:24;15.60;48.60
42227;DHT22;27892;52.378;13.122;2024-03-29T09:02:50;15.70;49.30
42227;DHT22;27892;52.378;13.122;2024-03-29T09:05:15;15.80;48.70
42227;DHT22;27892;52.378;13.122;2024-03-29T09:07:41;15.90;48.60
42227;DHT22;27892;52.378;13.122;2024-03-29T09:10:07;15.90;48.40
42227;DHT22;27892;52.378;13.122;2024-03-29T09:12:33;16.10;48.80
42227;DHT22;27892;52.378;13.122;2024-03-29T09:14:59;16.10;48.30
42227;DHT22;27892;52.378;13.122;2024-03-29T09:17:24;16.10;48.20
42227;DHT22;27892;52.378;13.122;2024-03-29T09:19:51;16.20;49.10
42227;DHT22;27892;52.378;13.122;2024-03-29T09:22:17;16.20;49.20
42227;DHT22;27892;52.378;13.122;2024-03-29T09:24:43;16.30;49.10
42227;DHT22;27892;52.378;13.122;2024-03-29T09:27:09;16.50;49.20
42227;DHT22;27892;52.378;13.122;2024-03-29T09:29:35;16.50;48.40
42227;DHT22;27892;52.378;13.122;2024-03-29T09:32:01;16.50;48.10
42227;DHT22;27892;52.378;13.122;2024-03-29T09:34:28;16.40;48.10
42227;DHT22;27892;52.378;13.122;2024-03-29T09:36:53;16.30;47.80
42227;DHT22;27892;52.378;13.122;2024-03-29T09:39:19;16.30;48.40
42227;DHT22;27892;52.378;13.122;2024-03-29T09:41:45;16.30;47.90
42227;DHT22;27892;52.378;13.122;2024-03-29T09:44:11;16.20;48.10
42227;DHT22;27892;52.378;13.122;2024-03-29T09:46:37;16.10;48.00
42227;DHT22;27892;52.378;13.122;2024-03-29T09:49:06;16.10;48.40
42227;DHT22;27892;52.378;13.122;2024-03-29T09:51:32;16.20;47.60
42227;DHT22;27892;52.378;13.122;2024-03-29T09:53:59;16.20;47.50
42227;DHT22;27892;52.378;13.122;2024-03-29T09:56:28;16.20;47.50
42227;DHT22;27892;52.378;13.122;2024-03-29T09:58:54;16.00;47.70
42227;DHT22;27892;52.378;13.122;2024-03-29T10:01:20;16.00;47.60
42227;DHT22;27892;52.378;13.122;2024-03-29T10:03:49;15.90;48.10
42227;DHT22;27892;52.378;13.122;2024-03-29T10:06:18;15.70;48.90
42227;DHT22;27892;52.378;13.122;2024-03-29T10:08:47;15.50;50.10
42227;DHT22;27892;52.378;13.122;2024-03-29T10:11:21;15.30;50.40
42227;DHT22;27892;52.378;13.122;2024-03-29T10:13:46;15.10;51.00
42227;DHT22;27892;52.378;13.122;2024-03-29T10:16:12;14.90;51.80
42227;DHT22;27892;52.378;13.122;2024-03-29T10:18:40;14.80;51.80
42227;DHT22;27892;52.378;13.122;2024-03-29T10:21:07;14.70;52.50
42227;DHT22;27892;52.378;13.122;2024-03-29T10:23:34;14.70;53.10
42227;DHT22;27892;52.378;13.122;2024-03-29T10:26:03;14.80;53.20
42227;DHT22;27892;52.378;13.122;2024-03-29T10:28:33;14.80;53.10
42227;DHT22;27892;52.378;13.122;2024-03-29T10:31:03;14.80;53.50
42227;DHT22;27892;52.378;13.122;2024-03-29T10:33:30;14.80;53.30
42227;DHT22;27892;52.378;13.122;2024-03-29T10:35:57;14.70;53.90
42227;DHT22;27892;52.378;13.122;2024-03-29T10:38:24;14.70;54.50
42227;DHT22;27892;52.378;13.122;2024-03-29T10:40:52;14.60;55.00
42227;DHT22;27892;52.378;13.122;2024-03-29T10:43:19;14.60;55.40
42227;DHT22;27892;52.378;13.122;2024-03-29T10:45:48;14.70;55.90
42227;DHT22;27892;52.378;13.122;2024-03-29T10:48:16;14.70;55.80
42227;DHT22;27892;52.378;13.122;2024-03-29T10:50:43;14.70;55.40
42227;DHT22;27892;52.378;13.122;2024-03-29T10:53:09;14.70;55.40
42227;DHT22;27892;52.378;13.122;2024-03-29T10:55:37;14.70;56.00
42227;DHT22;27892;52.378;13.122;2024-03-29T10:58:05;14.90;56.80
42227;DHT22;27892;52.378;13.122;2024-03-29T11:00:41;15.00;56.40
42227;DHT22;27892;52.378;13.122;2024-03-29T11:03:13;15.10;56.40
42227;DHT22;27892;52.378;13.122;2024-03-29T11:05:49;15.20;56.60
42227;DHT22;27892;52.378;13.122;2024-03-29T11:08:26;15.60;57.00
42227;DHT22;27892;52.378;13.122;2024-03-29T11:10:58;15.80;56.80
42227;DHT22;27892;52.378;13.122;2024-03-29T11:16:14;15.90;55.90
42227;DHT22;27892;52.378;13.122;2024-03-29T11:18:42;15.80;55.60
42227;DHT22;27892;52.378;13.122;2024-03-29T11:21:09;15.80;55.70
42227;DHT22;27892;52.378;13.122;2024-03-29T11:23:36;15.80;55.90
42227;DHT22;27892;52.378;13.122;2024-03-29T11:26:03;15.70;55.20
42227;DHT22;27892;52.378;13.122;2024-03-29T11:28:34;15.70;56.10
42227;DHT22;27892;52.378;13.122;2024-03-29T11:31:02;15.70;55.90
42227;DHT22;27892;52.378;13.122;2024-03-29T11:36:12;15.60;56.20
42227;DHT22;27892;52.378;13.122;2024-03-29T11:38:39;15.60;55.70
42227;DHT22;27892;52.378;13.122;2024-03-29T11:41:10;15.50;55.80
42227;DHT22;27892;52.378;13.122;2024-03-29T11:43:39;15.60;56.00
42227;DHT22;27892;52.378;13.122;2024-03-29T11:46:10;15.60;56.00
42227;DHT22;27892;52.378;13.122;2024-03-29T11:48:36;15.70;56.20
42227;DHT22;27892;52.378;13.122;2024-03-29T11:51:03;15.70;56.40
42227;DHT22;27892;52.378;13.122;2024-03-29T11:53:30;15.70;56.20
42227;DHT22;27892;52.378;13.122;2024-03-29T11:56:00;15.70;56.60
42227;DHT22;27892;52.378;13.122;2024-03-29T11:58:28;15.70;56.40
42227;DHT22;27892;52.378;13.122;2024-03-29T12:00:55;15.70;56.20
42227;DHT22;27892;52.378;13.122;2024-03-29T12:03:22;15.70;56.50
42227;DHT22;27892;52.378;13.122;2024-03-29T12:05:50;15.70;56.80
42227;DHT22;27892;52.378;13.122;2024-03-29T12:08:17;15.70;56.70
42227;DHT22;27892;52.378;13.122;2024-03-29T12:10:43;15.80;57.00
42227;DHT22;27892;52.378;13.122;2024-03-29T12:13:10;15.90;57.00
42227;DHT22;27892;52.378;13.122;2024-03-29T12:15:35;16.20;57.00
42227;DHT22;27892;52.378;13.122;2024-03-29T12:18:05;16.50;56.50
42227;DHT22;27892;52.378;13.122;2024-03-29T12:20:37;16.70;55.90
42227;DHT22;27892;52.378;13.122;2024-03-29T12:23:08;16.90;55.00
42227;DHT22;27892;52.378;13.122;2024-03-29T12:25:37;17.10;54.60
42227;DHT22;27892;52.378;13.122;2024-03-29T12:28:03;17.20;54.00
42227;DHT22;27892;52.378;13.122;2024-03-29T12:30:30;17.40;54.20
42227;DHT22;27892;52.378;13.122;2024-03-29T12:35:28;17.60;53.40
42227;DHT22;27892;52.378;13.122;2024-03-29T12:37:59;17.90;52.60
42227;DHT22;27892;52.378;13.122;2024-03-29T12:40:26;18.50;51.90
42227;DHT22;27892;52.378;13.122;2024-03-29T12:42:52;18.70;50.40
42227;DHT22;27892;52.378;13.122;2024-03-29T12:45:22;18.50;49.90
42227;DHT22;27892;52.378;13.122;2024-03-29T12:47:49;18.40;50.00
42227;DHT22;27892;52.378;13.122;2024-03-29T12:50:29;18.50;49.60
42227;DHT22;27892;52.378;13.122;2024-03-29T12:52:57;18.60;48.80
42227;DHT22;27892;52.378;13.122;2024-03-29T12:55:25;18.70;48.10
42227;DHT22;27892;52.378;13.122;2024-03-29T12:57:53;18.90;48.10
42227;DHT22;27892;52.378;13.122;2024-03-29T13:00:23;19.10;47.70
42227;DHT22;27892;52.378;13.122;2024-03-29T13:02:49;19.20;47.30
42227;DHT22;27892;52.378;13.122;2024-03-29T13:05:15;19.00;45.70
42227;DHT22;27892;52.378;13.122;2024-03-29T13:07:41;18.80;46.10
42227;DHT22;27892;52.378;13.122;2024-03-29T13:10:08;18.70;46.10
42227;DHT22;27892;52.378;13.122;2024-03-29T13:12:45;18.60;46.40
42227;DHT22;27892;52.378;13.122;2024-03-29T13:15:23;18.50;46.10
42227;DHT22;27892;52.378;13.122;2024-03-29T13:17:51;18.30;45.80
42227;DHT22;27892;52.378;13.122;2024-03-29T13:20:17;18.40;45.50
42227;DHT22;27892;52.378;13.122;2024-03-29T13:22:44;18.60;45.60
42227;DHT22;27892;52.378;13.122;2024-03-29T13:25:12;18.80;44.20
42227;DHT22;27892;52.378;13.122;2024-03-29T13:27:38;18.90;44.10
42227;DHT22;27892;52.378;13.122;2024-03-29T13:30:08;19.20;43.40
42227;DHT22;27892;52.378;13.122;2024-03-29T13:32:35;19.70;44.70
42227;DHT22;27892;52.378;13.122;2024-03-29T13:35:01;20.80;44.20
42227;DHT22;27892;52.378;13.122;2024-03-29T13:37:40;21.40;41.40
42227;DHT22;27892;52.378;13.122;2024-03-29T13:40:07;21.60;39.70
42227;DHT22;27892;52.378;13.122;2024-03-29T13:42:37;21.70;39.60
42227;DHT22;27892;52.378;13.122;2024-03-29T13:45:04;21.60;39.00
42227;DHT22;27892;52.378;13.122;2024-03-29T13:47:32;21.70;38.70
42227;DHT22;27892;52.378;13.122;2024-03-29T13:49:58;21.50;39.20
42227;DHT22;27892;52.378;13.122;2024-03-29T13:52:24;21.50;38.70
42227;DHT22;27892;52.378;13.122;2024-03-29T13:54:49;21.10;37.50
42227;DHT22;27892;52.378;13.122;2024-03-29T13:57:19;20.70;38.40
42227;DHT22;27892;52.378;13.122;2024-03-29T13:59:45;20.60;39.40
42227;DHT22;27892;52.378;13.122;2024-03-29T14:02:18;20.80;40.40
42227;DHT22;27892;52.378;13.122;2024-03-29T14:04:44;20.90;38.70
42227;DHT22;27892;52.378;13.122;2024-03-29T14:07:11;20.90;39.00
42227;DHT22;27892;52.378;13.122;2024-03-29T14:09:38;20.60;38.40
42227;DHT22;27892;52.378;13.122;2024-03-29T14:12:04;20.50;38.50
42227;DHT22;27892;52.378;13.122;2024-03-29T14:14:31;20.40;39.40
42227;DHT22;27892;52.378;13.122;2024-03-29T14:16:57;20.30;39.30
42227;DHT22;27892;52.378;13.122;2024-03-29T14:19:23;20.30;40.20
42227;DHT22;27892;52.378;13.122;2024-03-29T14:21:49;20.40;40.10
42227;DHT22;27892;52.378;13.122;2024-03-29T14:24:15;20.40;39.50
42227;DHT22;27892;52.378;13.122;2024-03-29T14:26:43;20.20;39.60
42227;DHT22;27892;52.378;13.122;2024-03-29T14:29:09;20.20;40.20
42227;DHT22;27892;52.378;13.122;2024-03-29T14:31:37;20.20;40.60
42227;DHT22;27892;52.378;13.122;2024-03-29T14:34:03;20.40;40.80
42227;DHT22;27892;52.378;13.122;2024-03-29T14:36:29;20.70;40.50
42227;DHT22;27892;52.378;13.122;2024-03-29T14:38:58;20.90;40.20
42227;DHT22;27892;52.378;13.122;2024-03-29T14:41:26;20.90;40.00
42227;DHT22;27892;52.378;13.122;2024-03-29T14:43:52;20.90;40.50
42227;DHT22;27892;52.378;13.122;2024-03-29T14:46:18;20.80;40.20
42227;DHT22;27892;52.378;13.122;2024-03-29T14:48:46;20.60;40.20
42227;DHT22;27892;52.378;13.122;2024-03-29T14:51:12;20.40;40.50
42227;DHT22;27892;52.378;13.122;2024-03-29T14:53:38;20.30;41.10
42227;DHT22;27892;52.378;13.122;2024-03-29T14:56:04;20.30;41.00
42227;DHT22;27892;52.378;13.122;2024-03-29T14:58:30;20.30;41.20
42227;DHT22;27892;52.378;13.122;2024-03-29T15:00:55;20.30;41.40
42227;DHT22;27892;52.378;13.122;2024-03-29T15:03:21;20.20;41.50
42227;DHT22;27892;52.378;13.122;2024-03-29T15:05:48;20.20;41.80
42227;DHT22;27892;52.378;13.122;2024-03-29T15:08:13;20.20;42.00
42227;DHT22;27892;52.378;13.122;2024-03-29T15:10:43;20.20;42.00
42227;DHT22;27892;52.378;13.122;2024-03-29T15:13:08;20.20;42.30
42227;DHT22;27892;52.378;13.122;2024-03-29T15:15:34;20.10;42.40
42227;DHT22;27892;52.378;13.122;2024-03-29T15:18:03;20.10;42.20
42227;DHT22;27892;52.378;13.122;2024-03-29T15:20:29;20.00;42.90
42227;DHT22;27892;52.378;13.122;2024-03-29T15:22:55;19.80;42.80
42227;DHT22;27892;52.378;13.122;2024-03-29T15:25:22;19.80;43.20
42227;DHT22;27892;52.378;13.122;2024-03-29T15:27:47;19.60;43.20